Falling Snow Example | kirupa.com

*

Sretan Božić i Nova godina

Merry Christmas and Happy New Year

METAR

METAR LDZA 131530Z 08005KT 020V140 9999 OVC010 00/M02 Q1019 NOSIG =
METAR LDSP 131530Z 08010KT 040V110 9999 -RA SCT025 OVC030 07/03 Q1013 NOSIG=
METAR LDDU 131530Z 09006KT 9999 FEW026 08/M03 Q1014 NOSIG =
METAR LDZD 131530Z 08010KT 030V120 9999 -RA FEW020 OVC060 03/01 Q1013 NOSIG =
METAR LDPL 131530Z 07019KT 9999 -RA FEW020 BKN040 04/00 Q1013 NOSIG=
METAR LDOS 131530Z 07007KT 9999 FEW030 02/M00 Q1019=
METAR LDRI 131530Z 07009KT 040V130 9999 FEW007 SCT033 BKN059 05/M05
Q1015=

TAF

TAF AMD LDZA 131127Z 1312/1412 05008KT 9999 OVC008
                     TX00/1312Z TNM02/1404Z
        PROB30 TEMPO 1318/1412 4000 -SN OVC003=
TAF LDSP 131125Z 1312/1412 04009KT 9999 BKN030
                 TX08/1411Z TN05/1321Z
           TEMPO 1312/1317 RA
           TEMPO 1403/1412 4000 RA=
TAF LDDU 131125Z 1312/1412 09008KT 9999 BKN050
                 TX10/1411Z TN06/1320Z
           BECMG 1316/1318 03008KT
    PROB40 TEMPO 1406/1412 4000 RA=
TAF LDZD 131125Z 1312/1412 11012KT 9999 BKN030
                 TX06/1312Z TN02/1400Z
    PROB30 TEMPO 1312/1316 5000 -RA
           BECMG 1313/1315 07010KT
           TEMPO 1406/1412 4000 RA=
TAF LDPL 131125Z 1312/1412 06015KT 9999 FEW015 OVC035
                 TX05/1312Z TN03/1404Z
           TEMPO 1312/1412 06015G25KT=
TAF LDOS 131125Z 1312/1412 09008KT 9999 FEW010
                 TX05/1313Z TNM02/1404Z
           BECMG 1316/1318 2000 BR OVC003=
TAF AMD LDSB 131406Z 1314/1412 CNL=
TAF LDRI 131125Z 1312/1412 06010KT 9999 FEW015 BKN040
                 TX06/1312Z TN03/1404Z
           TEMPO 1312/1412 VRB10KT=

SIGMET

AIRMET

LDZO AIRMET 15 VALID 131400/131700 LDZA-
LDZO ZAGREB FIR MT OBSC OBS WI N4525 E01353 - N4626 E01639 - N4549
E01742 - N4344 E01608 - N4525 E01353 ABV 1000FT STNR NC=
LDZO AIRMET 16 VALID 131500/131900 LDZA-
LDZO ZAGREB FIR MOD TURB FCST WI N4503 E01319 - N4533 E01430 - N4409
E01543 - N4345 E01435 - N4503 E01319 SFC/5000FT STNR NC=
LDZO AIRMET 17 VALID 131500/131900 LDZA-
LDZO ZAGREB FIR MOD ICE FCST WI N4529 E01401 - N4616 E01553 - N4356
E01632 - N4403 E01535 - N4529 E01401 1000/9000FT STNR INTSF=
LDZO AIRMET 18 VALID 131500/131900 LDZA-
LDZO ZAGREB FIR MOD ICE FCST WI N4528 E01403 - N4402 E01542 - N4354
E01636 - N4232 E01834 - N4123 E01821 - N4329 E01354 - N4518 E01256 -
N4528 E01403 4000/9000FT STNR NC=

Remark

Ukoliko se brzina i smjer vjetra ne mogu odrediti zbog privremenog kvara sustava/indikatora,
informacija o vjetru u METAR izvješću bit će prikazana kao "/////KT".

 

Disclaimer

 

In case of temporary system/sensor failure, wind speed and direction data will be represented as "/////KT" in METAR report.

 

         

      Politika MET podataka